KEYO2: Keystone Lake

Data processed at Sat Mar 10 2018 23:36


All information presented herein is the property of the government of the United States of America and may be revised or deleted at any time without prior notice.
Dissemination of this information without the expressed written consent of the Public Affairs Office, Tulsa District U.S. Army Corps of Engineers is strictly prohibited.
These data are gathered electronically and, as presented, have not undergone any form of quality control. These data are not guaranteed to be valid or correct.
Go to home page.
Go to station list.

Upstream stations:

Downstream station:
Previous Day
Next Day
Current Day
    
SHEF ID:       KEYO2     Keystone Lake
STATION TYPE:  Reservoir
Normal Pool:  Bottom =   706.00, Top =   723.00

               PRECIP ELEVATION   STORAGE   TW-ELEV    INFLOW   RELEASE  AIR-TEMP  WIND-DIRWIND-SPEED REL-HUMID SOLAR-RAD   VOLTAGE  BAT-LOAD
                   in        ft     ac-ft        ft       cfs       cfs         F       deg       mph         %      W/m2      volt      volt
              Ccp-Rev   Ccp-Rev   Ccp-Rev   Ccp-Rev  Regi-Rev  Regi-Rev   Ccp-Rev   Ccp-Rev   Ccp-Rev   Ccp-Rev   Ccp-Rev   Ccp-Rev   Ccp-Rev
(US/Central)
03/08 00:00      0.00    723.61    442235    637.82       315         0     39.15    290.60      1.62     78.10      0.00     13.69     13.30
03/08 01:00      0.00    723.63    442573    637.71       169         0     38.80    283.40      3.84     76.27      0.00     13.69     13.30
03/08 02:00      0.00    723.63    442573    637.65       172         0     37.60    283.90      3.71     74.80      0.00     13.70     13.30
03/08 03:00      0.00    723.65    442911    637.61       208         0     36.72    128.00      2.79     59.72      0.00     13.70     13.30
03/08 04:00      0.00    723.64    442742    637.80       234       200     35.29    131.00      2.06     53.43      0.00     13.69     13.30
03/08 05:00      0.00    723.63    442573    641.12       218      5800     36.28    118.60      2.03     45.74      0.00     13.69     13.30
03/08 06:00      0.00    723.63    442573    641.21       280      5800     30.90     52.40      0.71     75.54      0.00     13.69     13.30
03/08 07:00      0.00    723.60    442066    641.23       300      5700     29.46    113.80      2.30     81.52      5.00     13.69     12.65
03/08 08:00      0.00    723.59    441897    641.25       260      5800     32.32    114.20      2.35     72.97    173.00     13.69     13.30
03/08 09:00      0.00    723.57    441559    641.26       227      5800     39.25     94.60      3.96     49.22    426.00     13.69     13.30
03/08 10:00      0.00    723.55    441220    641.27       346      5900     42.67     96.70      3.64     41.22    612.00     13.69     13.30
03/08 11:00      0.00    723.54    441051    641.26       269      5800     46.17     92.00      4.65     32.49    673.00     13.69     13.36
03/08 12:00      0.00    723.54    441051    640.76       234      5800     49.93     82.40      6.13     30.54    776.00     13.69     13.30
03/08 13:00      0.00    723.54    441051    638.64       197         0     52.23     93.30      4.37     28.46    686.00     13.69     13.30
03/08 14:00      0.00    723.54    441051    638.06       246         0     55.63     96.90      5.70     25.71    844.00     13.69     13.30
03/08 15:00      0.00    723.54    441051    637.83       126         0     58.60    109.70      5.48     24.00    699.00     13.69     13.30
03/08 16:00      0.00    723.57    441559    637.71       210         0     60.13    122.50      6.12     21.68    425.00     13.69     13.30
03/08 17:00      0.00    723.57    441559    637.65       253         0     61.23    119.60      6.39     22.17    339.00     13.69     12.83
03/08 18:00      0.00    723.59    441897    637.61       253         0     60.01    112.80      7.76     25.09    126.00     13.69     13.30
03/08 19:00      0.00    723.60    442066    637.58       168         0     56.62    110.30      9.26     28.09      8.00     13.70     13.30
03/08 20:00      0.00    723.60    442066    637.56       253         0     54.86    108.70      7.60     31.08      0.00     13.70     13.30
03/08 21:00      0.00    723.61    442235    637.54       210         0     53.10    109.30      7.15     35.36      0.00     13.70     13.30
03/08 22:00      0.00    723.63    442573    637.53       210         0     51.33    102.90      5.89     36.94      0.00     13.70     13.30
03/08 23:00      0.00    723.64    442742    637.52       234         0     49.91    102.30      5.03     39.81      0.00     13.70     13.30